sensor_id;sensor_type;location;lat;lon;timestamp;pressure;altitude;pressure_sealevel;temperature;humidity
57250;BME280;43102;52.014;-0.680;2023-02-15T00:00:00;101768;;;4.01;73.04
57250;BME280;43102;52.014;-0.680;2023-02-15T00:01:08;101768;;;4.01;73.04
57250;BME280;43102;52.014;-0.680;2023-02-15T00:02:00;101765;;;4.04;72.96
57250;BME280;43102;52.014;-0.680;2023-02-15T00:03:00;101765;;;4.04;72.96
57250;BME280;43102;52.014;-0.680;2023-02-15T00:04:00;101765;;;4.04;72.96
57250;BME280;43102;52.014;-0.680;2023-02-15T00:05:00;101765;;;4.04;72.96
57250;BME280;43102;52.014;-0.680;2023-02-15T00:06:00;101765;;;4.04;72.96
57250;BME280;43102;52.014;-0.680;2023-02-15T00:07:00;101770;;;4.00;72.94
57250;BME280;43102;52.014;-0.680;2023-02-15T00:08:00;101770;;;4.00;72.94
57250;BME280;43102;52.014;-0.680;2023-02-15T00:09:00;101770;;;4.00;72.94
57250;BME280;43102;52.014;-0.680;2023-02-15T00:10:00;101770;;;4.00;72.94
57250;BME280;43102;52.014;-0.680;2023-02-15T00:11:04;101770;;;4.00;72.94
57250;BME280;43102;52.014;-0.680;2023-02-15T00:12:00;101760;;;4.01;72.81
57250;BME280;43102;52.014;-0.680;2023-02-15T00:13:00;101760;;;4.01;72.81
57250;BME280;43102;52.014;-0.680;2023-02-15T00:14:00;101760;;;4.01;72.81
57250;BME280;43102;52.014;-0.680;2023-02-15T00:15:00;101760;;;4.01;72.81
57250;BME280;43102;52.014;-0.680;2023-02-15T00:16:01;101760;;;4.01;72.81
57250;BME280;43102;52.014;-0.680;2023-02-15T00:17:00;101748;;;3.84;72.90
57250;BME280;43102;52.014;-0.680;2023-02-15T00:18:00;101748;;;3.84;72.90
57250;BME280;43102;52.014;-0.680;2023-02-15T00:19:00;101748;;;3.84;72.90
57250;BME280;43102;52.014;-0.680;2023-02-15T00:20:00;101748;;;3.84;72.90
57250;BME280;43102;52.014;-0.680;2023-02-15T00:21:08;101748;;;3.84;72.90
57250;BME280;43102;52.014;-0.680;2023-02-15T00:22:00;101732;;;3.58;72.79
57250;BME280;43102;52.014;-0.680;2023-02-15T00:23:00;101732;;;3.58;72.79
57250;BME280;43102;52.014;-0.680;2023-02-15T00:24:01;101732;;;3.58;72.79
57250;BME280;43102;52.014;-0.680;2023-02-15T00:25:00;101732;;;3.58;72.79
57250;BME280;43102;52.014;-0.680;2023-02-15T00:26:04;101732;;;3.58;72.79
57250;BME280;43102;52.014;-0.680;2023-02-15T00:27:00;101718;;;3.55;72.89
57250;BME280;43102;52.014;-0.680;2023-02-15T00:28:00;101718;;;3.55;72.89
57250;BME280;43102;52.014;-0.680;2023-02-15T00:29:01;101718;;;3.55;72.89
57250;BME280;43102;52.014;-0.680;2023-02-15T00:30:00;101718;;;3.55;72.89
57250;BME280;43102;52.014;-0.680;2023-02-15T00:31:02;101718;;;3.55;72.89
57250;BME280;43102;52.014;-0.680;2023-02-15T00:32:00;101713;;;3.47;73.05
57250;BME280;43102;52.014;-0.680;2023-02-15T00:33:00;101713;;;3.47;73.05
57250;BME280;43102;52.014;-0.680;2023-02-15T00:34:01;101713;;;3.47;73.05
57250;BME280;43102;52.014;-0.680;2023-02-15T00:35:00;101713;;;3.47;73.05
57250;BME280;43102;52.014;-0.680;2023-02-15T00:36:00;101713;;;3.47;73.05
57250;BME280;43102;52.014;-0.680;2023-02-15T00:37:00;101719;;;3.50;73.46
57250;BME280;43102;52.014;-0.680;2023-02-15T00:38:00;101719;;;3.50;73.46
57250;BME280;43102;52.014;-0.680;2023-02-15T00:39:00;101719;;;3.50;73.46
57250;BME280;43102;52.014;-0.680;2023-02-15T00:40:00;101719;;;3.50;73.46
57250;BME280;43102;52.014;-0.680;2023-02-15T00:41:01;101719;;;3.50;73.46
57250;BME280;43102;52.014;-0.680;2023-02-15T00:42:00;101710;;;3.55;73.49
57250;BME280;43102;52.014;-0.680;2023-02-15T00:43:00;101710;;;3.55;73.49
57250;BME280;43102;52.014;-0.680;2023-02-15T00:44:00;101710;;;3.55;73.49
57250;BME280;43102;52.014;-0.680;2023-02-15T00:45:00;101710;;;3.55;73.49
57250;BME280;43102;52.014;-0.680;2023-02-15T00:46:01;101710;;;3.55;73.49
57250;BME280;43102;52.014;-0.680;2023-02-15T00:47:00;101703;;;3.49;73.47
57250;BME280;43102;52.014;-0.680;2023-02-15T00:48:00;101703;;;3.49;73.47
57250;BME280;43102;52.014;-0.680;2023-02-15T00:49:00;101703;;;3.49;73.47
57250;BME280;43102;52.014;-0.680;2023-02-15T00:50:00;101703;;;3.49;73.47
57250;BME280;43102;52.014;-0.680;2023-02-15T00:51:00;101703;;;3.49;73.47
57250;BME280;43102;52.014;-0.680;2023-02-15T00:52:00;101690;;;3.52;73.30
57250;BME280;43102;52.014;-0.680;2023-02-15T00:53:00;101690;;;3.52;73.30
57250;BME280;43102;52.014;-0.680;2023-02-15T00:54:00;101690;;;3.52;73.30
57250;BME280;43102;52.014;-0.680;2023-02-15T00:55:00;101690;;;3.52;73.30
57250;BME280;43102;52.014;-0.680;2023-02-15T00:56:00;101690;;;3.52;73.30
57250;BME280;43102;52.014;-0.680;2023-02-15T00:57:00;101694;;;3.48;73.13
57250;BME280;43102;52.014;-0.680;2023-02-15T00:58:00;101694;;;3.48;73.13
57250;BME280;43102;52.014;-0.680;2023-02-15T00:59:00;101694;;;3.48;73.13
57250;BME280;43102;52.014;-0.680;2023-02-15T01:00:00;101694;;;3.48;73.13
57250;BME280;43102;52.014;-0.680;2023-02-15T01:01:05;101694;;;3.48;73.13
57250;BME280;43102;52.014;-0.680;2023-02-15T01:02:00;101686;;;3.46;73.11
57250;BME280;43102;52.014;-0.680;2023-02-15T01:03:00;101686;;;3.46;73.11
57250;BME280;43102;52.014;-0.680;2023-02-15T01:04:01;101686;;;3.46;73.11
57250;BME280;43102;52.014;-0.680;2023-02-15T01:05:00;101686;;;3.46;73.11
57250;BME280;43102;52.014;-0.680;2023-02-15T01:06:00;101686;;;3.46;73.11
57250;BME280;43102;52.014;-0.680;2023-02-15T01:07:00;101681;;;3.45;73.12
57250;BME280;43102;52.014;-0.680;2023-02-15T01:08:00;101681;;;3.45;73.12
57250;BME280;43102;52.014;-0.680;2023-02-15T01:09:00;101681;;;3.45;73.12
57250;BME280;43102;52.014;-0.680;2023-02-15T01:10:00;101681;;;3.45;73.12
57250;BME280;43102;52.014;-0.680;2023-02-15T01:11:05;101681;;;3.45;73.12
57250;BME280;43102;52.014;-0.680;2023-02-15T01:12:00;101680;;;3.45;73.12
57250;BME280;43102;52.014;-0.680;2023-02-15T01:13:00;101680;;;3.45;73.12
57250;BME280;43102;52.014;-0.680;2023-02-15T01:14:00;101680;;;3.45;73.12
57250;BME280;43102;52.014;-0.680;2023-02-15T01:15:00;101680;;;3.45;73.12
57250;BME280;43102;52.014;-0.680;2023-02-15T01:16:00;101680;;;3.45;73.12
57250;BME280;43102;52.014;-0.680;2023-02-15T01:17:00;101671;;;3.46;73.07
57250;BME280;43102;52.014;-0.680;2023-02-15T01:18:00;101671;;;3.46;73.07
57250;BME280;43102;52.014;-0.680;2023-02-15T01:19:00;101671;;;3.46;73.07
57250;BME280;43102;52.014;-0.680;2023-02-15T01:20:00;101671;;;3.46;73.07
57250;BME280;43102;52.014;-0.680;2023-02-15T01:21:00;101671;;;3.46;73.07
57250;BME280;43102;52.014;-0.680;2023-02-15T01:22:00;101665;;;3.46;72.97
57250;BME280;43102;52.014;-0.680;2023-02-15T01:23:00;101665;;;3.46;72.97
57250;BME280;43102;52.014;-0.680;2023-02-15T01:24:00;101665;;;3.46;72.97
57250;BME280;43102;52.014;-0.680;2023-02-15T01:25:00;101665;;;3.46;72.97
57250;BME280;43102;52.014;-0.680;2023-02-15T01:26:01;101665;;;3.46;72.97
57250;BME280;43102;52.014;-0.680;2023-02-15T01:27:00;101652;;;3.28;73.00
57250;BME280;43102;52.014;-0.680;2023-02-15T01:28:00;101652;;;3.28;73.00
57250;BME280;43102;52.014;-0.680;2023-02-15T01:29:00;101652;;;3.28;73.00
57250;BME280;43102;52.014;-0.680;2023-02-15T01:30:00;101652;;;3.28;73.00
57250;BME280;43102;52.014;-0.680;2023-02-15T01:31:04;101652;;;3.28;73.00
57250;BME280;43102;52.014;-0.680;2023-02-15T01:32:00;101648;;;3.14;73.10
57250;BME280;43102;52.014;-0.680;2023-02-15T01:33:00;101648;;;3.14;73.10
57250;BME280;43102;52.014;-0.680;2023-02-15T01:34:00;101648;;;3.14;73.10
57250;BME280;43102;52.014;-0.680;2023-02-15T01:35:00;101648;;;3.14;73.10
57250;BME280;43102;52.014;-0.680;2023-02-15T01:36:00;101648;;;3.14;73.10
57250;BME280;43102;52.014;-0.680;2023-02-15T01:37:00;101644;;;3.00;73.11
57250;BME280;43102;52.014;-0.680;2023-02-15T01:38:00;101644;;;3.00;73.11
57250;BME280;43102;52.014;-0.680;2023-02-15T01:39:00;101644;;;3.00;73.11
57250;BME280;43102;52.014;-0.680;2023-02-15T01:40:00;101644;;;3.00;73.11
57250;BME280;43102;52.014;-0.680;2023-02-15T01:41:00;101644;;;3.00;73.11
57250;BME280;43102;52.014;-0.680;2023-02-15T01:42:00;101628;;;2.85;73.08
57250;BME280;43102;52.014;-0.680;2023-02-15T01:43:00;101628;;;2.85;73.08
57250;BME280;43102;52.014;-0.680;2023-02-15T01:44:01;101628;;;2.85;73.08
57250;BME280;43102;52.014;-0.680;2023-02-15T01:45:02;101628;;;2.85;73.08
57250;BME280;43102;52.014;-0.680;2023-02-15T01:46:00;101628;;;2.85;73.08
57250;BME280;43102;52.014;-0.680;2023-02-15T01:47:00;101631;;;2.87;73.34
57250;BME280;43102;52.014;-0.680;2023-02-15T01:48:02;101631;;;2.87;73.34
57250;BME280;43102;52.014;-0.680;2023-02-15T01:49:07;101631;;;2.87;73.34
57250;BME280;43102;52.014;-0.680;2023-02-15T01:50:03;101631;;;2.87;73.34
57250;BME280;43102;52.014;-0.680;2023-02-15T01:51:00;101631;;;2.87;73.34
57250;BME280;43102;52.014;-0.680;2023-02-15T01:52:00;101623;;;2.98;73.34
57250;BME280;43102;52.014;-0.680;2023-02-15T01:53:01;101623;;;2.98;73.34
57250;BME280;43102;52.014;-0.680;2023-02-15T01:54:03;101623;;;2.98;73.34
57250;BME280;43102;52.014;-0.680;2023-02-15T01:55:00;101623;;;2.98;73.34
57250;BME280;43102;52.014;-0.680;2023-02-15T01:56:02;101623;;;2.98;73.34
57250;BME280;43102;52.014;-0.680;2023-02-15T01:57:01;101615;;;3.04;73.16
57250;BME280;43102;52.014;-0.680;2023-02-15T01:58:00;101615;;;3.04;73.16
57250;BME280;43102;52.014;-0.680;2023-02-15T01:59:03;101615;;;3.04;73.16
57250;BME280;43102;52.014;-0.680;2023-02-15T02:00:01;101615;;;3.04;73.16
57250;BME280;43102;52.014;-0.680;2023-02-15T02:01:00;101615;;;3.04;73.16
57250;BME280;43102;52.014;-0.680;2023-02-15T02:02:00;101606;;;3.01;73.20
57250;BME280;43102;52.014;-0.680;2023-02-15T02:03:00;101606;;;3.01;73.20
57250;BME280;43102;52.014;-0.680;2023-02-15T02:05:00;101606;;;3.01;73.20
57250;BME280;43102;52.014;-0.680;2023-02-15T02:06:00;101606;;;3.01;73.20
57250;BME280;43102;52.014;-0.680;2023-02-15T02:07:00;101601;;;2.88;73.36
57250;BME280;43102;52.014;-0.680;2023-02-15T02:08:01;101601;;;2.88;73.36
57250;BME280;43102;52.014;-0.680;2023-02-15T02:09:00;101601;;;2.88;73.36
57250;BME280;43102;52.014;-0.680;2023-02-15T02:10:01;101601;;;2.88;73.36
57250;BME280;43102;52.014;-0.680;2023-02-15T02:11:00;101601;;;2.88;73.36
57250;BME280;43102;52.014;-0.680;2023-02-15T02:12:00;101598;;;2.83;73.33
57250;BME280;43102;52.014;-0.680;2023-02-15T02:13:02;101598;;;2.83;73.33
57250;BME280;43102;52.014;-0.680;2023-02-15T02:14:00;101598;;;2.83;73.33
57250;BME280;43102;52.014;-0.680;2023-02-15T02:15:00;101598;;;2.83;73.33
57250;BME280;43102;52.014;-0.680;2023-02-15T02:16:02;101598;;;2.83;73.33
57250;BME280;43102;52.014;-0.680;2023-02-15T02:17:05;101587;;;2.76;73.60
57250;BME280;43102;52.014;-0.680;2023-02-15T02:18:03;101587;;;2.76;73.60
57250;BME280;43102;52.014;-0.680;2023-02-15T02:19:10;101587;;;2.76;73.60
57250;BME280;43102;52.014;-0.680;2023-02-15T02:23:06;101591;;;2.77;73.75
57250;BME280;43102;52.014;-0.680;2023-02-15T02:24:07;101591;;;2.77;73.75
57250;BME280;43102;52.014;-0.680;2023-02-15T02:26:20;101591;;;2.77;73.75
57250;BME280;43102;52.014;-0.680;2023-02-15T02:27:08;101579;;;2.82;73.54
57250;BME280;43102;52.014;-0.680;2023-02-15T02:34:04;101576;;;2.79;73.47
57250;BME280;43102;52.014;-0.680;2023-02-15T02:36:02;101576;;;2.79;73.47
57250;BME280;43102;52.014;-0.680;2023-02-15T02:38:08;101568;;;2.73;73.35
57250;BME280;43102;52.014;-0.680;2023-02-15T02:42:03;101566;;;2.66;73.46
57250;BME280;43102;52.014;-0.680;2023-02-15T02:43:02;101566;;;2.66;73.46
57250;BME280;43102;52.014;-0.680;2023-02-15T02:46:02;101566;;;2.66;73.46
57250;BME280;43102;52.014;-0.680;2023-02-15T02:47:18;101572;;;2.61;73.37
57250;BME280;43102;52.014;-0.680;2023-02-15T02:48:04;101572;;;2.61;73.37
57250;BME280;43102;52.014;-0.680;2023-02-15T02:49:00;101572;;;2.61;73.37
57250;BME280;43102;52.014;-0.680;2023-02-15T02:50:02;101572;;;2.61;73.37
57250;BME280;43102;52.014;-0.680;2023-02-15T02:51:00;101572;;;2.61;73.37
57250;BME280;43102;52.014;-0.680;2023-02-15T02:52:02;101566;;;2.58;73.45
57250;BME280;43102;52.014;-0.680;2023-02-15T02:53:00;101566;;;2.58;73.45
57250;BME280;43102;52.014;-0.680;2023-02-15T02:54:00;101566;;;2.58;73.45
57250;BME280;43102;52.014;-0.680;2023-02-15T02:55:01;101566;;;2.58;73.45
57250;BME280;43102;52.014;-0.680;2023-02-15T02:56:06;101566;;;2.58;73.45
57250;BME280;43102;52.014;-0.680;2023-02-15T02:57:01;101555;;;2.57;73.44
57250;BME280;43102;52.014;-0.680;2023-02-15T02:58:09;101555;;;2.57;73.44
57250;BME280;43102;52.014;-0.680;2023-02-15T02:59:05;101555;;;2.57;73.44
57250;BME280;43102;52.014;-0.680;2023-02-15T03:00:00;101555;;;2.57;73.44
57250;BME280;43102;52.014;-0.680;2023-02-15T03:01:05;101555;;;2.57;73.44
57250;BME280;43102;52.014;-0.680;2023-02-15T03:02:09;101550;;;2.54;73.46
57250;BME280;43102;52.014;-0.680;2023-02-15T03:03:01;101550;;;2.54;73.46
57250;BME280;43102;52.014;-0.680;2023-02-15T03:04:05;101550;;;2.54;73.46
57250;BME280;43102;52.014;-0.680;2023-02-15T03:05:02;101550;;;2.54;73.46
57250;BME280;43102;52.014;-0.680;2023-02-15T03:06:02;101550;;;2.54;73.46
57250;BME280;43102;52.014;-0.680;2023-02-15T03:07:01;101546;;;2.53;73.35
57250;BME280;43102;52.014;-0.680;2023-02-15T03:08:00;101546;;;2.53;73.35
57250;BME280;43102;52.014;-0.680;2023-02-15T03:09:01;101546;;;2.53;73.35
57250;BME280;43102;52.014;-0.680;2023-02-15T03:10:00;101546;;;2.53;73.35
57250;BME280;43102;52.014;-0.680;2023-02-15T03:11:03;101546;;;2.53;73.35
57250;BME280;43102;52.014;-0.680;2023-02-15T03:12:01;101540;;;2.46;73.35
57250;BME280;43102;52.014;-0.680;2023-02-15T03:13:00;101540;;;2.46;73.35
57250;BME280;43102;52.014;-0.680;2023-02-15T03:14:00;101540;;;2.46;73.35
57250;BME280;43102;52.014;-0.680;2023-02-15T03:15:16;101540;;;2.46;73.35
57250;BME280;43102;52.014;-0.680;2023-02-15T03:16:00;101540;;;2.46;73.35
57250;BME280;43102;52.014;-0.680;2023-02-15T03:17:00;101536;;;2.41;73.37
57250;BME280;43102;52.014;-0.680;2023-02-15T03:18:00;101536;;;2.41;73.37
57250;BME280;43102;52.014;-0.680;2023-02-15T03:19:03;101536;;;2.41;73.37
57250;BME280;43102;52.014;-0.680;2023-02-15T03:20:02;101536;;;2.41;73.37
57250;BME280;43102;52.014;-0.680;2023-02-15T03:21:00;101536;;;2.41;73.37
57250;BME280;43102;52.014;-0.680;2023-02-15T03:22:01;101529;;;2.43;73.25
57250;BME280;43102;52.014;-0.680;2023-02-15T03:23:02;101529;;;2.43;73.25
57250;BME280;43102;52.014;-0.680;2023-02-15T03:24:03;101529;;;2.43;73.25
57250;BME280;43102;52.014;-0.680;2023-02-15T03:25:02;101529;;;2.43;73.25
57250;BME280;43102;52.014;-0.680;2023-02-15T03:26:01;101529;;;2.43;73.25
57250;BME280;43102;52.014;-0.680;2023-02-15T03:27:00;101519;;;2.37;73.31
57250;BME280;43102;52.014;-0.680;2023-02-15T03:28:02;101519;;;2.37;73.31
57250;BME280;43102;52.014;-0.680;2023-02-15T03:29:00;101519;;;2.37;73.31
57250;BME280;43102;52.014;-0.680;2023-02-15T03:30:00;101519;;;2.37;73.31
57250;BME280;43102;52.014;-0.680;2023-02-15T03:31:01;101519;;;2.37;73.31
57250;BME280;43102;52.014;-0.680;2023-02-15T03:32:01;101499;;;2.38;73.27
57250;BME280;43102;52.014;-0.680;2023-02-15T03:33:00;101499;;;2.38;73.27
57250;BME280;43102;52.014;-0.680;2023-02-15T03:34:02;101499;;;2.38;73.27
57250;BME280;43102;52.014;-0.680;2023-02-15T03:35:00;101499;;;2.38;73.27
57250;BME280;43102;52.014;-0.680;2023-02-15T03:36:04;101499;;;2.38;73.27
57250;BME280;43102;52.014;-0.680;2023-02-15T03:38:00;101480;;;2.28;73.50
57250;BME280;43102;52.014;-0.680;2023-02-15T03:39:04;101480;;;2.28;73.50
57250;BME280;43102;52.014;-0.680;2023-02-15T03:40:10;101480;;;2.28;73.50
57250;BME280;43102;52.014;-0.680;2023-02-15T03:41:00;101480;;;2.28;73.50
57250;BME280;43102;52.014;-0.680;2023-02-15T03:43:03;101477;;;2.23;73.56
57250;BME280;43102;52.014;-0.680;2023-02-15T03:44:03;101477;;;2.23;73.56
57250;BME280;43102;52.014;-0.680;2023-02-15T03:45:03;101477;;;2.23;73.56
57250;BME280;43102;52.014;-0.680;2023-02-15T03:46:03;101477;;;2.23;73.56
57250;BME280;43102;52.014;-0.680;2023-02-15T03:47:16;101467;;;2.20;73.47
57250;BME280;43102;52.014;-0.680;2023-02-15T03:48:00;101467;;;2.20;73.47
57250;BME280;43102;52.014;-0.680;2023-02-15T03:49:04;101467;;;2.20;73.47
57250;BME280;43102;52.014;-0.680;2023-02-15T03:50:02;101467;;;2.20;73.47
57250;BME280;43102;52.014;-0.680;2023-02-15T03:51:02;101467;;;2.20;73.47
57250;BME280;43102;52.014;-0.680;2023-02-15T03:52:00;101451;;;2.07;73.38
57250;BME280;43102;52.014;-0.680;2023-02-15T03:53:00;101451;;;2.07;73.38
57250;BME280;43102;52.014;-0.680;2023-02-15T03:54:01;101451;;;2.07;73.38
57250;BME280;43102;52.014;-0.680;2023-02-15T03:55:00;101451;;;2.07;73.38
57250;BME280;43102;52.014;-0.680;2023-02-15T03:56:00;101451;;;2.07;73.38
57250;BME280;43102;52.014;-0.680;2023-02-15T03:57:00;101451;;;2.11;73.60
57250;BME280;43102;52.014;-0.680;2023-02-15T03:58:00;101451;;;2.11;73.60
57250;BME280;43102;52.014;-0.680;2023-02-15T03:59:00;101451;;;2.11;73.60
57250;BME280;43102;52.014;-0.680;2023-02-15T04:00:02;101451;;;2.11;73.60
57250;BME280;43102;52.014;-0.680;2023-02-15T04:01:03;101451;;;2.11;73.60
57250;BME280;43102;52.014;-0.680;2023-02-15T04:02:20;101443;;;2.15;73.59
57250;BME280;43102;52.014;-0.680;2023-02-15T04:03:05;101443;;;2.15;73.59
57250;BME280;43102;52.014;-0.680;2023-02-15T04:04:02;101443;;;2.15;73.59
57250;BME280;43102;52.014;-0.680;2023-02-15T04:05:00;101443;;;2.15;73.59
57250;BME280;43102;52.014;-0.680;2023-02-15T04:06:00;101443;;;2.15;73.59
57250;BME280;43102;52.014;-0.680;2023-02-15T04:07:01;101449;;;2.16;73.53
57250;BME280;43102;52.014;-0.680;2023-02-15T04:08:00;101449;;;2.16;73.53
57250;BME280;43102;52.014;-0.680;2023-02-15T04:09:00;101449;;;2.16;73.53
57250;BME280;43102;52.014;-0.680;2023-02-15T04:10:00;101449;;;2.16;73.53
57250;BME280;43102;52.014;-0.680;2023-02-15T04:11:00;101449;;;2.16;73.53
57250;BME280;43102;52.014;-0.680;2023-02-15T04:12:00;101448;;;2.18;73.57
57250;BME280;43102;52.014;-0.680;2023-02-15T04:13:00;101448;;;2.18;73.57
57250;BME280;43102;52.014;-0.680;2023-02-15T04:14:00;101448;;;2.18;73.57
57250;BME280;43102;52.014;-0.680;2023-02-15T04:15:00;101448;;;2.18;73.57
57250;BME280;43102;52.014;-0.680;2023-02-15T04:16:00;101448;;;2.18;73.57
57250;BME280;43102;52.014;-0.680;2023-02-15T04:17:00;101446;;;2.19;73.62
57250;BME280;43102;52.014;-0.680;2023-02-15T04:18:02;101446;;;2.19;73.62
57250;BME280;43102;52.014;-0.680;2023-02-15T04:19:00;101446;;;2.19;73.62
57250;BME280;43102;52.014;-0.680;2023-02-15T04:20:00;101446;;;2.19;73.62
57250;BME280;43102;52.014;-0.680;2023-02-15T04:21:00;101446;;;2.19;73.62
57250;BME280;43102;52.014;-0.680;2023-02-15T04:22:00;101456;;;2.22;73.72
57250;BME280;43102;52.014;-0.680;2023-02-15T04:23:00;101456;;;2.22;73.72
57250;BME280;43102;52.014;-0.680;2023-02-15T04:24:00;101456;;;2.22;73.72
57250;BME280;43102;52.014;-0.680;2023-02-15T04:25:00;101456;;;2.22;73.72
57250;BME280;43102;52.014;-0.680;2023-02-15T04:26:03;101456;;;2.22;73.72
57250;BME280;43102;52.014;-0.680;2023-02-15T04:27:00;101453;;;2.19;73.74
57250;BME280;43102;52.014;-0.680;2023-02-15T04:28:00;101453;;;2.19;73.74
57250;BME280;43102;52.014;-0.680;2023-02-15T04:29:00;101453;;;2.19;73.74
57250;BME280;43102;52.014;-0.680;2023-02-15T04:30:00;101453;;;2.19;73.74
57250;BME280;43102;52.014;-0.680;2023-02-15T04:31:00;101453;;;2.19;73.74
57250;BME280;43102;52.014;-0.680;2023-02-15T04:32:00;101451;;;2.18;73.81
57250;BME280;43102;52.014;-0.680;2023-02-15T04:33:00;101451;;;2.18;73.81
57250;BME280;43102;52.014;-0.680;2023-02-15T04:34:00;101451;;;2.18;73.81
57250;BME280;43102;52.014;-0.680;2023-02-15T04:35:00;101451;;;2.18;73.81
57250;BME280;43102;52.014;-0.680;2023-02-15T04:36:00;101451;;;2.18;73.81
57250;BME280;43102;52.014;-0.680;2023-02-15T04:37:00;101442;;;2.18;73.94
57250;BME280;43102;52.014;-0.680;2023-02-15T04:38:00;101442;;;2.18;73.94
57250;BME280;43102;52.014;-0.680;2023-02-15T04:39:00;101442;;;2.18;73.94
57250;BME280;43102;52.014;-0.680;2023-02-15T04:40:00;101442;;;2.18;73.94
57250;BME280;43102;52.014;-0.680;2023-02-15T04:41:00;101442;;;2.18;73.94
57250;BME280;43102;52.014;-0.680;2023-02-15T04:42:00;101439;;;2.28;74.32
57250;BME280;43102;52.014;-0.680;2023-02-15T04:43:00;101439;;;2.28;74.32
57250;BME280;43102;52.014;-0.680;2023-02-15T04:44:00;101439;;;2.28;74.32
57250;BME280;43102;52.014;-0.680;2023-02-15T04:45:00;101439;;;2.28;74.32
57250;BME280;43102;52.014;-0.680;2023-02-15T04:46:00;101439;;;2.28;74.32
57250;BME280;43102;52.014;-0.680;2023-02-15T04:47:00;101434;;;2.45;75.00
57250;BME280;43102;52.014;-0.680;2023-02-15T04:48:00;101434;;;2.45;75.00
57250;BME280;43102;52.014;-0.680;2023-02-15T04:49:00;101434;;;2.45;75.00
57250;BME280;43102;52.014;-0.680;2023-02-15T04:50:00;101434;;;2.45;75.00
57250;BME280;43102;52.014;-0.680;2023-02-15T04:51:04;101434;;;2.45;75.00
57250;BME280;43102;52.014;-0.680;2023-02-15T04:52:00;101426;;;2.65;75.50
57250;BME280;43102;52.014;-0.680;2023-02-15T04:53:00;101426;;;2.65;75.50
57250;BME280;43102;52.014;-0.680;2023-02-15T04:54:00;101426;;;2.65;75.50
57250;BME280;43102;52.014;-0.680;2023-02-15T04:55:00;101426;;;2.65;75.50
57250;BME280;43102;52.014;-0.680;2023-02-15T04:56:00;101426;;;2.65;75.50
57250;BME280;43102;52.014;-0.680;2023-02-15T04:57:00;101419;;;2.83;77.37
57250;BME280;43102;52.014;-0.680;2023-02-15T04:58:00;101419;;;2.83;77.37
57250;BME280;43102;52.014;-0.680;2023-02-15T04:59:00;101419;;;2.83;77.37
57250;BME280;43102;52.014;-0.680;2023-02-15T05:00:00;101419;;;2.83;77.37
57250;BME280;43102;52.014;-0.680;2023-02-15T05:01:00;101419;;;2.83;77.37
57250;BME280;43102;52.014;-0.680;2023-02-15T05:02:00;101411;;;3.10;77.88
57250;BME280;43102;52.014;-0.680;2023-02-15T05:03:00;101411;;;3.10;77.88
57250;BME280;43102;52.014;-0.680;2023-02-15T05:04:00;101411;;;3.10;77.88
57250;BME280;43102;52.014;-0.680;2023-02-15T05:05:00;101411;;;3.10;77.88
57250;BME280;43102;52.014;-0.680;2023-02-15T05:06:00;101411;;;3.10;77.88
57250;BME280;43102;52.014;-0.680;2023-02-15T05:07:00;101407;;;3.49;79.81
57250;BME280;43102;52.014;-0.680;2023-02-15T05:08:00;101407;;;3.49;79.81
57250;BME280;43102;52.014;-0.680;2023-02-15T05:09:00;101407;;;3.49;79.81
57250;BME280;43102;52.014;-0.680;2023-02-15T05:10:00;101407;;;3.49;79.81
57250;BME280;43102;52.014;-0.680;2023-02-15T05:11:00;101407;;;3.49;79.81
57250;BME280;43102;52.014;-0.680;2023-02-15T05:12:00;101406;;;3.75;79.50
57250;BME280;43102;52.014;-0.680;2023-02-15T05:13:00;101406;;;3.75;79.50
57250;BME280;43102;52.014;-0.680;2023-02-15T05:14:00;101406;;;3.75;79.50
57250;BME280;43102;52.014;-0.680;2023-02-15T05:15:00;101406;;;3.75;79.50
57250;BME280;43102;52.014;-0.680;2023-02-15T05:16:00;101406;;;3.75;79.50
57250;BME280;43102;52.014;-0.680;2023-02-15T05:17:00;101391;;;3.91;79.64
57250;BME280;43102;52.014;-0.680;2023-02-15T05:18:00;101391;;;3.91;79.64
57250;BME280;43102;52.014;-0.680;2023-02-15T05:19:00;101391;;;3.91;79.64
57250;BME280;43102;52.014;-0.680;2023-02-15T05:20:00;101391;;;3.91;79.64
57250;BME280;43102;52.014;-0.680;2023-02-15T05:21:00;101391;;;3.91;79.64
57250;BME280;43102;52.014;-0.680;2023-02-15T05:22:00;101385;;;4.01;79.56
57250;BME280;43102;52.014;-0.680;2023-02-15T05:23:00;101385;;;4.01;79.56
57250;BME280;43102;52.014;-0.680;2023-02-15T05:24:00;101385;;;4.01;79.56
57250;BME280;43102;52.014;-0.680;2023-02-15T05:25:00;101385;;;4.01;79.56
57250;BME280;43102;52.014;-0.680;2023-02-15T05:26:00;101385;;;4.01;79.56
57250;BME280;43102;52.014;-0.680;2023-02-15T05:27:00;101379;;;4.14;79.99
57250;BME280;43102;52.014;-0.680;2023-02-15T05:28:00;101379;;;4.14;79.99
57250;BME280;43102;52.014;-0.680;2023-02-15T05:29:00;101379;;;4.14;79.99
57250;BME280;43102;52.014;-0.680;2023-02-15T05:30:00;101379;;;4.14;79.99
57250;BME280;43102;52.014;-0.680;2023-02-15T05:31:02;101379;;;4.14;79.99
57250;BME280;43102;52.014;-0.680;2023-02-15T05:32:00;101371;;;4.22;79.98
57250;BME280;43102;52.014;-0.680;2023-02-15T05:33:00;101371;;;4.22;79.98
57250;BME280;43102;52.014;-0.680;2023-02-15T05:34:00;101371;;;4.22;79.98
57250;BME280;43102;52.014;-0.680;2023-02-15T05:35:00;101371;;;4.22;79.98
57250;BME280;43102;52.014;-0.680;2023-02-15T05:36:00;101371;;;4.22;79.98
57250;BME280;43102;52.014;-0.680;2023-02-15T05:37:00;101372;;;4.24;79.88
57250;BME280;43102;52.014;-0.680;2023-02-15T05:38:00;101372;;;4.24;79.88
57250;BME280;43102;52.014;-0.680;2023-02-15T05:39:00;101372;;;4.24;79.88
57250;BME280;43102;52.014;-0.680;2023-02-15T05:40:00;101372;;;4.24;79.88
57250;BME280;43102;52.014;-0.680;2023-02-15T05:41:00;101372;;;4.24;79.88
57250;BME280;43102;52.014;-0.680;2023-02-15T05:42:00;101372;;;4.23;79.69
57250;BME280;43102;52.014;-0.680;2023-02-15T05:43:00;101372;;;4.23;79.69
57250;BME280;43102;52.014;-0.680;2023-02-15T05:44:00;101372;;;4.23;79.69
57250;BME280;43102;52.014;-0.680;2023-02-15T05:45:00;101372;;;4.23;79.69
57250;BME280;43102;52.014;-0.680;2023-02-15T05:46:00;101372;;;4.23;79.69